SHK157 LGRP-EGKK
Flight info
| Callsign | SHK157 |
|---|---|
| Flight time | 3h 40m |
| Altitude | 38000 |
| Route | VANES UM601 ADESO UN133 RIGRO DCT DISOR DCT LONTA UL608 DOLEV DCT PODOB DCT LIKVI DCT MONID DCT RUGOG DCT RIFEN DCT SAFFA DCT ELMUR DCT RIPUS L613 HOC DCT LUL DCT RLP DCT ROTSI DCT KOTUN DCT NINAL DCT KESAX DCT KUNAV |
| Aircraft | B742/H-SDFHIRWXY/L |
Departure
| Time | 2026-05-05 18:37 |
|---|---|
| Airport | Rhodes International Airport "Diagoras" (LGRP) |
Arrival
| Time | 2026-05-05 22:18 |
|---|---|
| Airport | London Gatwick Airport (EGKK) |
| Time | Latitude | Longitude | Altitude | Speed | Heading |
|---|---|---|---|---|---|
| 2026-05-05 18:13 | 36.40307 | 28.08886 | 36 ft | 0 kts | 160° |
| 2026-05-05 18:27 | 36.40311 | 28.08884 | 36 ft | 2 kts | 160° |
| 2026-05-05 18:27 | 36.40320 | 28.08880 | 36 ft | 2 kts | 160° |
| 2026-05-05 18:27 | 36.40333 | 28.08873 | 35 ft | 2 kts | 150° |
| 2026-05-05 18:27 | 36.40346 | 28.08863 | 35 ft | 2 kts | 142° |
| 2026-05-05 18:28 | 36.40367 | 28.08837 | 34 ft | 2 kts | 127° |
| 2026-05-05 18:28 | 36.40376 | 28.08822 | 33 ft | 2 kts | 118° |
| 2026-05-05 18:28 | 36.40382 | 28.08805 | 33 ft | 2 kts | 111° |
| 2026-05-05 18:29 | 36.40387 | 28.08787 | 32 ft | 2 kts | 103° |
| 2026-05-05 18:29 | 36.40389 | 28.08769 | 32 ft | 2 kts | 95° |
| 2026-05-05 18:29 | 36.40389 | 28.08750 | 32 ft | 2 kts | 87° |
| 2026-05-05 18:29 | 36.40388 | 28.08732 | 31 ft | 2 kts | 79° |
| 2026-05-05 18:30 | 36.40384 | 28.08714 | 31 ft | 2 kts | 71° |
| 2026-05-05 18:30 | 36.40382 | 28.08707 | 31 ft | 0 kts | 68° |
| 2026-05-05 18:32 | 36.40389 | 28.08732 | 31 ft | 7 kts | 76° |
| 2026-05-05 18:32 | 36.40401 | 28.08817 | 33 ft | 13 kts | 88° |
| 2026-05-05 18:33 | 36.40399 | 28.08979 | 35 ft | 22 kts | 86° |
| 2026-05-05 18:33 | 36.40444 | 28.09160 | 36 ft | 22 kts | 71° |
| 2026-05-05 18:33 | 36.40503 | 28.09338 | 34 ft | 20 kts | 51° |
| 2026-05-05 18:33 | 36.40588 | 28.09440 | 31 ft | 15 kts | 57° |
| 2026-05-05 18:34 | 36.40630 | 28.09564 | 29 ft | 15 kts | 70° |
| 2026-05-05 18:34 | 36.40679 | 28.09728 | 27 ft | 24 kts | 70° |
| 2026-05-05 18:34 | 36.40730 | 28.09904 | 27 ft | 18 kts | 71° |
| 2026-05-05 18:34 | 36.40771 | 28.10046 | 27 ft | 17 kts | 68° |
| 2026-05-05 18:35 | 36.40815 | 28.10196 | 28 ft | 19 kts | 71° |
| 2026-05-05 18:35 | 36.40858 | 28.10348 | 27 ft | 18 kts | 70° |
| 2026-05-05 18:35 | 36.40935 | 28.10432 | 26 ft | 15 kts | 348° |
| 2026-05-05 18:35 | 36.41005 | 28.10339 | 24 ft | 15 kts | 289° |
| 2026-05-05 18:36 | 36.41003 | 28.10217 | 24 ft | 12 kts | 250° |
| 2026-05-05 18:36 | 36.40993 | 28.10182 | 25 ft | 9 kts | 250° |
| 2026-05-05 18:36 | 36.40991 | 28.10177 | 25 ft | 0 kts | 250° |
| 2026-05-05 18:36 | 36.40979 | 28.10134 | 24 ft | 18 kts | 250° |
| 2026-05-05 18:37 | 36.40854 | 28.09711 | 24 ft | 85 kts | 250° |
| 2026-05-05 18:37 | 36.40579 | 28.08775 | 30 ft | 143 kts | 250° |
| 2026-05-05 18:37 | 36.40196 | 28.07526 | 372 ft | 160 kts | 251° |
| 2026-05-05 18:37 | 36.39772 | 28.06247 | 912 ft | 165 kts | 251° |
| 2026-05-05 18:38 | 36.39356 | 28.04905 | 1437 ft | 170 kts | 258° |
| 2026-05-05 18:38 | 36.38969 | 28.03512 | 2016 ft | 174 kts | 258° |
| 2026-05-05 18:38 | 36.38686 | 28.02022 | 2368 ft | 185 kts | 275° |
| 2026-05-05 18:38 | 36.38712 | 28.00383 | 2802 ft | 197 kts | 277° |
| 2026-05-05 18:39 | 36.38737 | 27.98551 | 2954 ft | 230 kts | 276° |
| 2026-05-05 18:39 | 36.38739 | 27.96456 | 3186 ft | 251 kts | 275° |
| 2026-05-05 18:39 | 36.38719 | 27.94264 | 3737 ft | 254 kts | 274° |
| 2026-05-05 18:39 | 36.38711 | 27.92118 | 4428 ft | 252 kts | 274° |
| 2026-05-05 18:40 | 36.38688 | 27.89913 | 4882 ft | 260 kts | 272° |
| 2026-05-05 18:40 | 36.38656 | 27.87678 | 5488 ft | 261 kts | 272° |
| 2026-05-05 18:40 | 36.38627 | 27.85427 | 6062 ft | 264 kts | 272° |
| 2026-05-05 18:40 | 36.38603 | 27.83152 | 6650 ft | 266 kts | 272° |
| 2026-05-05 18:41 | 36.38577 | 27.80866 | 7265 ft | 267 kts | 272° |
| 2026-05-05 18:41 | 36.38553 | 27.78574 | 7873 ft | 267 kts | 273° |
| 2026-05-05 18:41 | 36.38530 | 27.76268 | 8458 ft | 268 kts | 273° |
| 2026-05-05 18:41 | 36.38571 | 27.73962 | 9017 ft | 268 kts | 278° |
| 2026-05-05 18:42 | 36.38748 | 27.71670 | 9589 ft | 268 kts | 281° |
| 2026-05-05 18:42 | 36.38996 | 27.69383 | 10129 ft | 269 kts | 283° |
| 2026-05-05 18:42 | 36.39273 | 27.67090 | 10676 ft | 270 kts | 283° |
| 2026-05-05 18:42 | 36.39561 | 27.64781 | 11173 ft | 273 kts | 284° |
| 2026-05-05 18:43 | 36.39852 | 27.62455 | 11671 ft | 275 kts | 283° |
| 2026-05-05 18:43 | 36.40145 | 27.60121 | 12180 ft | 276 kts | 284° |
| 2026-05-05 18:43 | 36.40439 | 27.57771 | 12686 ft | 276 kts | 284° |
| 2026-05-05 18:43 | 36.40734 | 27.55413 | 13166 ft | 278 kts | 284° |
| 2026-05-05 18:44 | 36.41029 | 27.53056 | 13658 ft | 278 kts | 284° |
| 2026-05-05 18:44 | 36.41325 | 27.50687 | 14104 ft | 280 kts | 284° |
| 2026-05-05 18:44 | 36.41623 | 27.48293 | 14550 ft | 282 kts | 284° |
| 2026-05-05 18:44 | 36.41922 | 27.45887 | 14995 ft | 283 kts | 284° |
| 2026-05-05 18:45 | 36.42229 | 27.43430 | 15169 ft | 295 kts | 284° |
| 2026-05-05 18:45 | 36.42551 | 27.40854 | 15288 ft | 310 kts | 283° |
| 2026-05-05 18:45 | 36.42886 | 27.38156 | 15411 ft | 325 kts | 283° |
| 2026-05-05 18:45 | 36.43237 | 27.35314 | 15531 ft | 340 kts | 283° |
| 2026-05-05 18:46 | 36.43595 | 27.32348 | 15651 ft | 356 kts | 282° |
| 2026-05-05 18:46 | 36.43970 | 27.29254 | 15772 ft | 371 kts | 282° |
| 2026-05-05 18:46 | 36.44359 | 27.26072 | 16335 ft | 374 kts | 282° |
| 2026-05-05 18:46 | 36.44750 | 27.22899 | 16994 ft | 374 kts | 282° |
| 2026-05-05 18:47 | 36.45144 | 27.19707 | 17576 ft | 376 kts | 282° |
| 2026-05-05 18:47 | 36.45537 | 27.16489 | 18158 ft | 378 kts | 282° |
| 2026-05-05 18:47 | 36.45930 | 27.13263 | 18711 ft | 381 kts | 282° |
| 2026-05-05 18:47 | 36.46324 | 27.10018 | 19301 ft | 382 kts | 282° |
| 2026-05-05 18:48 | 36.46720 | 27.06754 | 19828 ft | 385 kts | 283° |
| 2026-05-05 18:48 | 36.47120 | 27.03472 | 20403 ft | 386 kts | 282° |
| 2026-05-05 18:48 | 36.47521 | 27.00182 | 20964 ft | 388 kts | 283° |
| 2026-05-05 18:48 | 36.47924 | 26.96863 | 21512 ft | 389 kts | 283° |
| 2026-05-05 18:49 | 36.48326 | 26.93539 | 21992 ft | 392 kts | 283° |
| 2026-05-05 18:49 | 36.48729 | 26.90196 | 22501 ft | 394 kts | 283° |
| 2026-05-05 18:49 | 36.49132 | 26.86835 | 22999 ft | 396 kts | 283° |
| 2026-05-05 18:49 | 36.49535 | 26.83463 | 23523 ft | 396 kts | 283° |
| 2026-05-05 18:50 | 36.49939 | 26.80066 | 23995 ft | 399 kts | 283° |
| 2026-05-05 18:50 | 36.50342 | 26.76667 | 24459 ft | 401 kts | 283° |
| 2026-05-05 18:50 | 36.50748 | 26.73239 | 24887 ft | 403 kts | 283° |
| 2026-05-05 18:50 | 36.51156 | 26.69787 | 25323 ft | 406 kts | 283° |
| 2026-05-05 18:51 | 36.51562 | 26.66331 | 25791 ft | 407 kts | 283° |
| 2026-05-05 18:51 | 36.51969 | 26.62859 | 26228 ft | 408 kts | 283° |
| 2026-05-05 18:51 | 36.52387 | 26.59369 | 26614 ft | 409 kts | 285° |
| 2026-05-05 18:51 | 36.53201 | 26.56019 | 26903 ft | 405 kts | 298° |
| 2026-05-05 18:52 | 36.54661 | 26.53053 | 27234 ft | 402 kts | 311° |
| 2026-05-05 18:52 | 36.56666 | 26.50638 | 27664 ft | 399 kts | 323° |
| 2026-05-05 18:52 | 36.58940 | 26.48663 | 28062 ft | 400 kts | 328° |
| 2026-05-05 18:52 | 36.61351 | 26.46896 | 28409 ft | 402 kts | 330° |
| 2026-05-05 18:53 | 36.63833 | 26.45245 | 28792 ft | 403 kts | 332° |
| 2026-05-05 18:53 | 36.66345 | 26.43662 | 29139 ft | 405 kts | 333° |
| 2026-05-05 18:53 | 36.68880 | 26.42114 | 29453 ft | 407 kts | 333° |
| 2026-05-05 18:53 | 36.71433 | 26.40582 | 29828 ft | 407 kts | 333° |
| 2026-05-05 18:54 | 36.73987 | 26.39063 | 30185 ft | 407 kts | 334° |
| 2026-05-05 18:54 | 36.76556 | 26.37544 | 30447 ft | 410 kts | 334° |
| 2026-05-05 18:54 | 36.79139 | 26.36020 | 30704 ft | 412 kts | 334° |
| 2026-05-05 18:54 | 36.81746 | 26.34483 | 30970 ft | 415 kts | 333° |
| 2026-05-05 18:55 | 36.84354 | 26.32946 | 31338 ft | 414 kts | 333° |
| 2026-05-05 18:55 | 36.86945 | 26.31421 | 31836 ft | 411 kts | 333° |
| 2026-05-05 18:55 | 36.89533 | 26.29895 | 32173 ft | 412 kts | 333° |
| 2026-05-05 18:55 | 36.92118 | 26.28369 | 32521 ft | 411 kts | 333° |
| 2026-05-05 18:56 | 36.94701 | 26.26843 | 32886 ft | 411 kts | 333° |
| 2026-05-05 18:56 | 36.97267 | 26.25310 | 33314 ft | 408 kts | 333° |
| 2026-05-05 18:56 | 36.99823 | 26.23768 | 33635 ft | 408 kts | 333° |
| 2026-05-05 18:56 | 37.02379 | 26.22219 | 33914 ft | 409 kts | 332° |
| 2026-05-05 18:57 | 37.04931 | 26.20667 | 34260 ft | 408 kts | 332° |
| 2026-05-05 18:57 | 37.07482 | 26.19113 | 34447 ft | 409 kts | 332° |
| 2026-05-05 18:57 | 37.10032 | 26.17557 | 34663 ft | 409 kts | 332° |
| 2026-05-05 18:57 | 37.12592 | 26.15994 | 34903 ft | 409 kts | 332° |
| 2026-05-05 18:58 | 37.15150 | 26.14430 | 35110 ft | 409 kts | 332° |
| 2026-05-05 18:58 | 37.17714 | 26.12861 | 35278 ft | 410 kts | 332° |
| 2026-05-05 18:58 | 37.20274 | 26.11293 | 35498 ft | 410 kts | 332° |
| 2026-05-05 18:58 | 37.22830 | 26.09727 | 35727 ft | 409 kts | 332° |
| 2026-05-05 18:59 | 37.25382 | 26.08161 | 35905 ft | 409 kts | 332° |
| 2026-05-05 18:59 | 37.27938 | 26.06592 | 36042 ft | 411 kts | 332° |
| 2026-05-05 18:59 | 37.30511 | 26.05011 | 36156 ft | 412 kts | 332° |
| 2026-05-05 18:59 | 37.33085 | 26.03429 | 36380 ft | 412 kts | 332° |
| 2026-05-05 19:00 | 37.35657 | 26.01847 | 36626 ft | 411 kts | 332° |
| 2026-05-05 19:00 | 37.38222 | 26.00268 | 36820 ft | 412 kts | 332° |
| 2026-05-05 19:00 | 37.40797 | 25.98681 | 37011 ft | 412 kts | 332° |
| 2026-05-05 19:00 | 37.43370 | 25.97095 | 37173 ft | 413 kts | 332° |
| 2026-05-05 19:01 | 37.45950 | 25.95503 | 37393 ft | 412 kts | 332° |
| 2026-05-05 19:01 | 37.48520 | 25.93915 | 37573 ft | 412 kts | 332° |
| 2026-05-05 19:01 | 37.51104 | 25.92318 | 37676 ft | 414 kts | 332° |
| 2026-05-05 19:01 | 37.53687 | 25.90720 | 37864 ft | 413 kts | 332° |
| 2026-05-05 19:02 | 37.56252 | 25.89107 | 38019 ft | 413 kts | 330° |
| 2026-05-05 19:02 | 37.58774 | 25.87343 | 38055 ft | 416 kts | 328° |
| 2026-05-05 19:02 | 37.63761 | 25.83550 | 38051 ft | 422 kts | 327° |
| 2026-05-05 19:03 | 37.68773 | 25.79585 | 38055 ft | 429 kts | 327° |
| 2026-05-05 19:03 | 37.73840 | 25.75529 | 38047 ft | 435 kts | 327° |
| 2026-05-05 19:04 | 37.78971 | 25.71404 | 38044 ft | 439 kts | 327° |
| 2026-05-05 19:04 | 37.84129 | 25.67248 | 38043 ft | 441 kts | 327° |
| 2026-05-05 19:05 | 37.89307 | 25.63068 | 38048 ft | 443 kts | 327° |
| 2026-05-05 19:05 | 37.94504 | 25.58866 | 38058 ft | 444 kts | 327° |
| 2026-05-05 19:06 | 37.99684 | 25.54670 | 38051 ft | 442 kts | 327° |
| 2026-05-05 19:06 | 38.04854 | 25.50475 | 38054 ft | 443 kts | 327° |
| 2026-05-05 19:07 | 38.10040 | 25.46259 | 38052 ft | 443 kts | 327° |
| 2026-05-05 19:07 | 38.15227 | 25.42036 | 38048 ft | 444 kts | 327° |
| 2026-05-05 19:08 | 38.20419 | 25.37802 | 38056 ft | 444 kts | 327° |
| 2026-05-05 19:08 | 38.25606 | 25.33565 | 38052 ft | 443 kts | 326° |
| 2026-05-05 19:09 | 38.30768 | 25.29340 | 38044 ft | 442 kts | 326° |
| 2026-05-05 19:09 | 38.35937 | 25.25102 | 38050 ft | 443 kts | 326° |
| 2026-05-05 19:10 | 38.41111 | 25.20853 | 38054 ft | 443 kts | 326° |
| 2026-05-05 19:10 | 38.46212 | 25.16658 | 38050 ft | 426 kts | 326° |
| 2026-05-05 19:11 | 38.51161 | 25.12580 | 38039 ft | 426 kts | 326° |
| 2026-05-05 19:11 | 38.56170 | 25.08444 | 38058 ft | 433 kts | 326° |
| 2026-05-05 19:12 | 38.61253 | 25.04242 | 38041 ft | 438 kts | 326° |
| 2026-05-05 19:12 | 38.66349 | 25.00023 | 38050 ft | 436 kts | 326° |
| 2026-05-05 19:13 | 38.71432 | 24.95805 | 38048 ft | 436 kts | 326° |
| 2026-05-05 19:13 | 38.76506 | 24.91589 | 38048 ft | 436 kts | 326° |
| 2026-05-05 19:14 | 38.81580 | 24.87365 | 38045 ft | 435 kts | 326° |
| 2026-05-05 19:14 | 38.86654 | 24.83134 | 38050 ft | 436 kts | 326° |
| 2026-05-05 19:15 | 38.91764 | 24.78865 | 38042 ft | 439 kts | 326° |
| 2026-05-05 19:15 | 38.96867 | 24.74595 | 38034 ft | 435 kts | 326° |
| 2026-05-05 19:16 | 39.01918 | 24.70360 | 38053 ft | 434 kts | 326° |
| 2026-05-05 19:16 | 39.06998 | 24.66094 | 38041 ft | 437 kts | 326° |
| 2026-05-05 19:17 | 39.12082 | 24.61818 | 38045 ft | 436 kts | 326° |
| 2026-05-05 19:17 | 39.17149 | 24.57548 | 38037 ft | 436 kts | 326° |
| 2026-05-05 19:18 | 39.22217 | 24.53269 | 38036 ft | 437 kts | 326° |
| 2026-05-05 19:18 | 39.27298 | 24.48972 | 38035 ft | 436 kts | 326° |
| 2026-05-05 19:19 | 39.32365 | 24.44680 | 38035 ft | 437 kts | 326° |
| 2026-05-05 19:19 | 39.37453 | 24.40363 | 38030 ft | 437 kts | 326° |
| 2026-05-05 19:20 | 39.42515 | 24.36059 | 38028 ft | 434 kts | 326° |
| 2026-05-05 19:20 | 39.47564 | 24.31759 | 38029 ft | 435 kts | 326° |
| 2026-05-05 19:21 | 39.50081 | 24.29612 | 37927 ft | 433 kts | 326° |
| 2026-05-05 19:21 | 39.52520 | 24.27505 | 38393 ft | 408 kts | 325° |
| 2026-05-05 19:21 | 39.54637 | 24.25678 | 39135 ft | 396 kts | 326° |
| 2026-05-05 19:21 | 39.56953 | 24.23705 | 38960 ft | 404 kts | 326° |
| 2026-05-05 19:22 | 39.59330 | 24.21682 | 38558 ft | 416 kts | 326° |
| 2026-05-05 19:22 | 39.61785 | 24.19589 | 38171 ft | 427 kts | 326° |
| 2026-05-05 19:22 | 39.64283 | 24.17455 | 38044 ft | 433 kts | 326° |
| 2026-05-05 19:22 | 39.66804 | 24.15297 | 38030 ft | 436 kts | 326° |
| 2026-05-05 19:23 | 39.71848 | 24.10970 | 38030 ft | 433 kts | 326° |
| 2026-05-05 19:23 | 39.76845 | 24.06671 | 38031 ft | 432 kts | 326° |
| 2026-05-05 19:24 | 39.81849 | 24.02359 | 38031 ft | 433 kts | 326° |
| 2026-05-05 19:24 | 39.86858 | 23.98034 | 38025 ft | 432 kts | 326° |
| 2026-05-05 19:25 | 39.91855 | 23.93711 | 38035 ft | 432 kts | 326° |
| 2026-05-05 19:25 | 39.96853 | 23.89379 | 38029 ft | 433 kts | 326° |
| 2026-05-05 19:26 | 40.01872 | 23.85022 | 38032 ft | 434 kts | 326° |
| 2026-05-05 19:26 | 40.06887 | 23.80661 | 38030 ft | 434 kts | 326° |
| 2026-05-05 19:27 | 40.11885 | 23.76307 | 38024 ft | 432 kts | 326° |
| 2026-05-05 19:27 | 40.16874 | 23.71952 | 38020 ft | 432 kts | 326° |
| 2026-05-05 19:28 | 40.21865 | 23.67587 | 38033 ft | 433 kts | 326° |
| 2026-05-05 19:28 | 40.26857 | 23.63216 | 38019 ft | 432 kts | 326° |
| 2026-05-05 19:29 | 40.31843 | 23.58839 | 38024 ft | 433 kts | 326° |
| 2026-05-05 19:29 | 40.36842 | 23.54445 | 38031 ft | 433 kts | 326° |
| 2026-05-05 19:30 | 40.41826 | 23.50055 | 38038 ft | 431 kts | 326° |
| 2026-05-05 19:30 | 40.46803 | 23.45664 | 38044 ft | 434 kts | 326° |
| 2026-05-05 19:31 | 40.51826 | 23.41224 | 38062 ft | 436 kts | 326° |
| 2026-05-05 19:31 | 40.56826 | 23.36797 | 38054 ft | 433 kts | 326° |
| 2026-05-05 19:32 | 40.61819 | 23.32366 | 38064 ft | 435 kts | 325° |
| 2026-05-05 19:32 | 40.66819 | 23.27922 | 38050 ft | 434 kts | 325° |
| 2026-05-05 19:33 | 40.71795 | 23.23490 | 38038 ft | 432 kts | 325° |
| 2026-05-05 19:33 | 40.76776 | 23.19048 | 38035 ft | 434 kts | 325° |
| 2026-05-05 19:34 | 40.81778 | 23.14577 | 38042 ft | 435 kts | 325° |
| 2026-05-05 19:35 | 40.89247 | 23.07887 | 38042 ft | 432 kts | 325° |
| 2026-05-05 19:35 | 40.94225 | 23.03416 | 38044 ft | 434 kts | 325° |
| 2026-05-05 19:36 | 40.99211 | 22.98931 | 38038 ft | 434 kts | 325° |
| 2026-05-05 19:36 | 41.04180 | 22.94453 | 38027 ft | 433 kts | 325° |
| 2026-05-05 19:37 | 41.09151 | 22.89965 | 38020 ft | 434 kts | 325° |
| 2026-05-05 19:37 | 41.14144 | 22.85448 | 38023 ft | 435 kts | 325° |
| 2026-05-05 19:38 | 41.19129 | 22.80930 | 38031 ft | 435 kts | 325° |
| 2026-05-05 19:38 | 41.23956 | 22.76128 | 38034 ft | 435 kts | 318° |
| 2026-05-05 19:39 | 41.28270 | 22.70503 | 38030 ft | 435 kts | 314° |
| 2026-05-05 19:39 | 41.32389 | 22.64627 | 38032 ft | 436 kts | 313° |
| 2026-05-05 19:40 | 41.36474 | 22.58668 | 38034 ft | 437 kts | 313° |
| 2026-05-05 19:40 | 41.40545 | 22.52692 | 38041 ft | 437 kts | 313° |
| 2026-05-05 19:41 | 41.44610 | 22.46711 | 38061 ft | 436 kts | 313° |
| 2026-05-05 19:41 | 41.48669 | 22.40727 | 38061 ft | 436 kts | 313° |
| 2026-05-05 19:42 | 41.52739 | 22.34716 | 38053 ft | 438 kts | 313° |
| 2026-05-05 19:42 | 41.56809 | 22.28691 | 38049 ft | 438 kts | 312° |
| 2026-05-05 19:43 | 41.60867 | 22.22672 | 38036 ft | 437 kts | 312° |
| 2026-05-05 19:43 | 41.64929 | 22.16634 | 38035 ft | 439 kts | 312° |
| 2026-05-05 19:44 | 41.69004 | 22.10566 | 38024 ft | 439 kts | 312° |
| 2026-05-05 19:44 | 41.73064 | 22.04507 | 38020 ft | 437 kts | 312° |
| 2026-05-05 19:45 | 41.77110 | 21.98456 | 38019 ft | 438 kts | 313° |
| 2026-05-05 19:45 | 41.81172 | 21.92371 | 38022 ft | 440 kts | 312° |
| 2026-05-05 19:46 | 41.85218 | 21.86295 | 38013 ft | 436 kts | 312° |
| 2026-05-05 19:46 | 41.89249 | 21.80230 | 38014 ft | 438 kts | 312° |
| 2026-05-05 19:47 | 41.93296 | 21.74128 | 38010 ft | 438 kts | 312° |
| 2026-05-05 19:47 | 41.97327 | 21.68037 | 38006 ft | 437 kts | 312° |
| 2026-05-05 19:48 | 42.01355 | 21.61940 | 38011 ft | 438 kts | 312° |
| 2026-05-05 19:48 | 42.05396 | 21.55810 | 38014 ft | 439 kts | 312° |
| 2026-05-05 19:49 | 42.09425 | 21.49685 | 38019 ft | 437 kts | 312° |
| 2026-05-05 19:49 | 42.13447 | 21.43553 | 38037 ft | 438 kts | 312° |
| 2026-05-05 19:50 | 42.17430 | 21.37363 | 38050 ft | 439 kts | 311° |
| 2026-05-05 19:50 | 42.21393 | 21.31113 | 38053 ft | 439 kts | 310° |
| 2026-05-05 19:51 | 42.25340 | 21.24856 | 38057 ft | 440 kts | 310° |
| 2026-05-05 19:51 | 42.29299 | 21.18560 | 38062 ft | 438 kts | 310° |
| 2026-05-05 19:52 | 42.33221 | 21.12308 | 38063 ft | 437 kts | 310° |
| 2026-05-05 19:52 | 42.37180 | 21.05986 | 38082 ft | 439 kts | 310° |
| 2026-05-05 19:53 | 42.41096 | 20.99718 | 38073 ft | 436 kts | 310° |
| 2026-05-05 19:53 | 42.45014 | 20.93433 | 38078 ft | 440 kts | 310° |
| 2026-05-05 19:54 | 42.48957 | 20.87096 | 38072 ft | 439 kts | 310° |
| 2026-05-05 19:54 | 42.52869 | 20.80794 | 38070 ft | 438 kts | 310° |
| 2026-05-05 19:55 | 42.56792 | 20.74460 | 38072 ft | 441 kts | 310° |
| 2026-05-05 19:55 | 42.60716 | 20.68112 | 38075 ft | 439 kts | 310° |
| 2026-05-05 19:56 | 42.64625 | 20.61776 | 38071 ft | 439 kts | 310° |
| 2026-05-05 19:56 | 42.68542 | 20.55411 | 38074 ft | 441 kts | 310° |
| 2026-05-05 19:57 | 42.72454 | 20.49041 | 38075 ft | 438 kts | 310° |
| 2026-05-05 19:57 | 42.76356 | 20.42674 | 38081 ft | 441 kts | 309° |
| 2026-05-05 19:58 | 42.80275 | 20.36265 | 38096 ft | 441 kts | 310° |
| 2026-05-05 19:58 | 42.84183 | 20.29857 | 38119 ft | 441 kts | 309° |
| 2026-05-05 19:59 | 42.88093 | 20.23438 | 38136 ft | 441 kts | 309° |
| 2026-05-05 19:59 | 42.90041 | 20.20235 | 37988 ft | 439 kts | 309° |
| 2026-05-05 19:59 | 42.91985 | 20.17035 | 38116 ft | 440 kts | 309° |
| 2026-05-05 20:00 | 42.95902 | 20.10575 | 38109 ft | 444 kts | 309° |
| 2026-05-05 20:00 | 42.99812 | 20.04114 | 38098 ft | 440 kts | 308° |
| 2026-05-05 20:01 | 43.03703 | 19.97668 | 38101 ft | 442 kts | 308° |
| 2026-05-05 20:01 | 43.07614 | 19.91173 | 38094 ft | 443 kts | 308° |
| 2026-05-05 20:02 | 43.11510 | 19.84692 | 38092 ft | 441 kts | 309° |
| 2026-05-05 20:02 | 43.15402 | 19.78202 | 38089 ft | 444 kts | 308° |
| 2026-05-05 20:03 | 43.19317 | 19.71658 | 38094 ft | 446 kts | 309° |
| 2026-05-05 20:03 | 43.23217 | 19.65126 | 38093 ft | 442 kts | 308° |
| 2026-05-05 20:04 | 43.27104 | 19.58600 | 38096 ft | 444 kts | 308° |
| 2026-05-05 20:04 | 43.31006 | 19.52036 | 38093 ft | 445 kts | 308° |
| 2026-05-05 20:05 | 43.34890 | 19.45487 | 38093 ft | 442 kts | 308° |
| 2026-05-05 20:05 | 43.38760 | 19.38946 | 38093 ft | 444 kts | 308° |
| 2026-05-05 20:06 | 43.42650 | 19.32357 | 38092 ft | 445 kts | 308° |
| 2026-05-05 20:06 | 43.46540 | 19.25754 | 38094 ft | 444 kts | 308° |
| 2026-05-05 20:07 | 43.50415 | 19.19158 | 38094 ft | 444 kts | 308° |
| 2026-05-05 20:07 | 43.54180 | 19.12426 | 38106 ft | 445 kts | 306° |
| 2026-05-05 20:08 | 43.57840 | 19.05580 | 38098 ft | 446 kts | 305° |
| 2026-05-05 20:08 | 43.61476 | 18.98685 | 38105 ft | 445 kts | 305° |
| 2026-05-05 20:09 | 43.65099 | 18.91776 | 38101 ft | 446 kts | 305° |
| 2026-05-05 20:09 | 43.68732 | 18.84831 | 38092 ft | 447 kts | 305° |
| 2026-05-05 20:10 | 43.72347 | 18.77905 | 38082 ft | 445 kts | 305° |
| 2026-05-05 20:10 | 43.75953 | 18.70980 | 38079 ft | 444 kts | 304° |
| 2026-05-05 20:11 | 43.79555 | 18.64046 | 38077 ft | 446 kts | 305° |
| 2026-05-05 20:11 | 43.83158 | 18.57093 | 38074 ft | 445 kts | 304° |
| 2026-05-05 20:12 | 43.86756 | 18.50134 | 38071 ft | 445 kts | 304° |
| 2026-05-05 20:12 | 43.90359 | 18.43147 | 38076 ft | 447 kts | 304° |
| 2026-05-05 20:13 | 43.93940 | 18.36189 | 38071 ft | 443 kts | 304° |
| 2026-05-05 20:13 | 43.97511 | 18.29231 | 38068 ft | 444 kts | 304° |
| 2026-05-05 20:14 | 44.01086 | 18.22249 | 38065 ft | 444 kts | 304° |
| 2026-05-05 20:14 | 44.04642 | 18.15291 | 38063 ft | 441 kts | 304° |
| 2026-05-05 20:15 | 44.08184 | 18.08339 | 38054 ft | 444 kts | 304° |
| 2026-05-05 20:15 | 44.11753 | 18.01325 | 38048 ft | 445 kts | 303° |
| 2026-05-05 20:16 | 44.15307 | 17.94363 | 38049 ft | 441 kts | 304° |
| 2026-05-05 20:16 | 44.18868 | 17.87390 | 38058 ft | 445 kts | 304° |
| 2026-05-05 20:17 | 44.22451 | 17.80359 | 38048 ft | 447 kts | 304° |
| 2026-05-05 20:17 | 44.26031 | 17.73321 | 38045 ft | 445 kts | 304° |
| 2026-05-05 20:18 | 44.29598 | 17.66287 | 38046 ft | 446 kts | 304° |
| 2026-05-05 20:18 | 44.33182 | 17.59204 | 38045 ft | 448 kts | 304° |
| 2026-05-05 20:19 | 44.36754 | 17.52129 | 38045 ft | 446 kts | 304° |
| 2026-05-05 20:19 | 44.40314 | 17.45060 | 38042 ft | 446 kts | 304° |
| 2026-05-05 20:20 | 44.43886 | 17.37949 | 38047 ft | 449 kts | 304° |
| 2026-05-05 20:20 | 44.47451 | 17.30835 | 38041 ft | 446 kts | 303° |
| 2026-05-05 20:20 | 44.49229 | 17.27279 | 38196 ft | 449 kts | 303° |
| 2026-05-05 20:21 | 44.51014 | 17.23707 | 37833 ft | 447 kts | 303° |
| 2026-05-05 20:21 | 44.52784 | 17.20160 | 38101 ft | 446 kts | 303° |
| 2026-05-05 20:21 | 44.54554 | 17.16607 | 38047 ft | 447 kts | 303° |
| 2026-05-05 20:22 | 44.58103 | 17.09470 | 38040 ft | 446 kts | 303° |
| 2026-05-05 20:22 | 44.61636 | 17.02351 | 38030 ft | 446 kts | 303° |
| 2026-05-05 20:23 | 44.65175 | 16.95201 | 38024 ft | 448 kts | 303° |
| 2026-05-05 20:23 | 44.68711 | 16.88040 | 38007 ft | 447 kts | 303° |
| 2026-05-05 20:24 | 44.72244 | 16.80865 | 38014 ft | 448 kts | 303° |
| 2026-05-05 20:24 | 44.74011 | 16.77271 | 37786 ft | 446 kts | 303° |
| 2026-05-05 20:24 | 44.75757 | 16.73716 | 37978 ft | 444 kts | 303° |
| 2026-05-05 20:25 | 44.79285 | 16.66513 | 38000 ft | 452 kts | 303° |
| 2026-05-05 20:25 | 44.82839 | 16.59244 | 37994 ft | 449 kts | 303° |
| 2026-05-05 20:25 | 44.84596 | 16.55646 | 38234 ft | 445 kts | 303° |
| 2026-05-05 20:26 | 44.86342 | 16.52063 | 37984 ft | 444 kts | 303° |
| 2026-05-05 20:26 | 44.89839 | 16.44869 | 37983 ft | 449 kts | 303° |
| 2026-05-05 20:27 | 44.93350 | 16.37633 | 37987 ft | 447 kts | 303° |
| 2026-05-05 20:27 | 44.96593 | 16.30195 | 37976 ft | 444 kts | 296° |
| 2026-05-05 20:28 | 44.99322 | 16.22366 | 37982 ft | 446 kts | 294° |
| 2026-05-05 20:28 | 45.01887 | 16.14427 | 37980 ft | 443 kts | 293° |
| 2026-05-05 20:29 | 45.04387 | 16.06539 | 37988 ft | 442 kts | 292° |
| 2026-05-05 20:29 | 45.06879 | 15.98633 | 37978 ft | 442 kts | 292° |
| 2026-05-05 20:30 | 45.09382 | 15.90667 | 37975 ft | 445 kts | 292° |
| 2026-05-05 20:30 | 45.11876 | 15.82706 | 37977 ft | 442 kts | 292° |
| 2026-05-05 20:31 | 45.14353 | 15.74775 | 37967 ft | 443 kts | 292° |
| 2026-05-05 20:31 | 45.16838 | 15.66795 | 37968 ft | 444 kts | 292° |
| 2026-05-05 20:32 | 45.19314 | 15.58820 | 37987 ft | 439 kts | 292° |
| 2026-05-05 20:32 | 45.21743 | 15.50972 | 37970 ft | 437 kts | 292° |
| 2026-05-05 20:33 | 45.24195 | 15.43022 | 37955 ft | 445 kts | 292° |
| 2026-05-05 20:33 | 45.26663 | 15.35038 | 37980 ft | 439 kts | 293° |
| 2026-05-05 20:34 | 45.29225 | 15.27239 | 37961 ft | 438 kts | 293° |
| 2026-05-05 20:34 | 45.31885 | 15.19390 | 37984 ft | 445 kts | 294° |
| 2026-05-05 20:35 | 45.34561 | 15.11544 | 37957 ft | 439 kts | 294° |
| 2026-05-05 20:35 | 45.37212 | 15.03756 | 37974 ft | 442 kts | 294° |
| 2026-05-05 20:36 | 45.39889 | 14.95873 | 37961 ft | 444 kts | 294° |
| 2026-05-05 20:36 | 45.42554 | 14.88001 | 37976 ft | 443 kts | 294° |
| 2026-05-05 20:37 | 45.45212 | 14.80127 | 37955 ft | 444 kts | 294° |
| 2026-05-05 20:37 | 45.47879 | 14.72203 | 37983 ft | 445 kts | 293° |
| 2026-05-05 20:38 | 45.50530 | 14.64305 | 37981 ft | 441 kts | 294° |
| 2026-05-05 20:38 | 45.53170 | 14.56411 | 37979 ft | 445 kts | 293° |
| 2026-05-05 20:39 | 45.55827 | 14.48444 | 37978 ft | 445 kts | 293° |
| 2026-05-05 20:39 | 45.58464 | 14.40515 | 37974 ft | 443 kts | 293° |
| 2026-05-05 20:40 | 45.61109 | 14.32536 | 37977 ft | 446 kts | 292° |
| 2026-05-05 20:40 | 45.63737 | 14.24585 | 37972 ft | 442 kts | 292° |
| 2026-05-05 20:41 | 45.66342 | 14.16681 | 37980 ft | 442 kts | 292° |
| 2026-05-05 20:41 | 45.68966 | 14.08689 | 37986 ft | 446 kts | 292° |
| 2026-05-05 20:42 | 45.71575 | 14.00725 | 37978 ft | 439 kts | 292° |
| 2026-05-05 20:42 | 45.74166 | 13.92791 | 37969 ft | 442 kts | 292° |
| 2026-05-05 20:43 | 45.76772 | 13.84781 | 37987 ft | 446 kts | 292° |
| 2026-05-05 20:43 | 45.79367 | 13.76786 | 37696 ft | 442 kts | 292° |
| 2026-05-05 20:43 | 45.80652 | 13.72822 | 38155 ft | 440 kts | 292° |
| 2026-05-05 20:44 | 45.81940 | 13.68835 | 37925 ft | 443 kts | 292° |
| 2026-05-05 20:44 | 45.84513 | 13.60762 | 37954 ft | 450 kts | 291° |
| 2026-05-05 20:45 | 45.88222 | 13.48474 | 37978 ft | 446 kts | 290° |
| 2026-05-05 20:45 | 45.90637 | 13.40302 | 37974 ft | 447 kts | 290° |
| 2026-05-05 20:46 | 45.93060 | 13.32057 | 37976 ft | 451 kts | 290° |
| 2026-05-05 20:46 | 45.95495 | 13.23744 | 37975 ft | 450 kts | 289° |
| 2026-05-05 20:47 | 45.97917 | 13.15447 | 37978 ft | 452 kts | 290° |
| 2026-05-05 20:47 | 46.00342 | 13.07112 | 37962 ft | 453 kts | 289° |
| 2026-05-05 20:48 | 46.02770 | 12.98740 | 37963 ft | 454 kts | 289° |
| 2026-05-05 20:48 | 46.05194 | 12.90358 | 37970 ft | 456 kts | 289° |
| 2026-05-05 20:49 | 46.07613 | 12.81964 | 37970 ft | 454 kts | 289° |
| 2026-05-05 20:49 | 46.10024 | 12.73566 | 37973 ft | 457 kts | 289° |
| 2026-05-05 20:50 | 46.12435 | 12.65143 | 37966 ft | 454 kts | 289° |
| 2026-05-05 20:50 | 46.14827 | 12.56751 | 37967 ft | 457 kts | 289° |
| 2026-05-05 20:51 | 46.17242 | 12.48246 | 37966 ft | 461 kts | 289° |
| 2026-05-05 20:51 | 46.19648 | 12.39753 | 37973 ft | 457 kts | 289° |
| 2026-05-05 20:52 | 46.22038 | 12.31283 | 37983 ft | 459 kts | 288° |
| 2026-05-05 20:52 | 46.24430 | 12.22775 | 37977 ft | 458 kts | 288° |
| 2026-05-05 20:53 | 46.26801 | 12.14317 | 37983 ft | 456 kts | 288° |
| 2026-05-05 20:53 | 46.29173 | 12.05816 | 37984 ft | 459 kts | 288° |
| 2026-05-05 20:54 | 46.31545 | 11.97293 | 37980 ft | 459 kts | 288° |
| 2026-05-05 20:54 | 46.33913 | 11.88748 | 37959 ft | 461 kts | 287° |
| 2026-05-05 20:55 | 46.36281 | 11.80178 | 37976 ft | 461 kts | 288° |
| 2026-05-05 20:55 | 46.38649 | 11.71576 | 37973 ft | 461 kts | 288° |
| 2026-05-05 20:56 | 46.41004 | 11.62993 | 37979 ft | 459 kts | 288° |
| 2026-05-05 20:56 | 46.43350 | 11.54405 | 37994 ft | 462 kts | 288° |
| 2026-05-05 20:57 | 46.45704 | 11.45759 | 37974 ft | 463 kts | 288° |
| 2026-05-05 20:57 | 46.48045 | 11.37135 | 37963 ft | 460 kts | 288° |
| 2026-05-05 20:58 | 46.50381 | 11.28494 | 37952 ft | 463 kts | 286° |
| 2026-05-05 20:58 | 46.52718 | 11.19816 | 37959 ft | 462 kts | 286° |
| 2026-05-05 20:59 | 46.55037 | 11.11176 | 37974 ft | 461 kts | 287° |
| 2026-05-05 20:59 | 46.57359 | 11.02487 | 37992 ft | 464 kts | 287° |
| 2026-05-05 21:00 | 46.59676 | 10.93793 | 37983 ft | 463 kts | 287° |
| 2026-05-05 21:00 | 46.61990 | 10.85075 | 37981 ft | 465 kts | 286° |
| 2026-05-05 21:01 | 46.64303 | 10.76324 | 37976 ft | 464 kts | 287° |
| 2026-05-05 21:01 | 46.66599 | 10.67615 | 37981 ft | 463 kts | 286° |
| 2026-05-05 21:02 | 46.68898 | 10.58847 | 37986 ft | 467 kts | 286° |
| 2026-05-05 21:02 | 46.71200 | 10.50048 | 37979 ft | 465 kts | 286° |
| 2026-05-05 21:03 | 46.73523 | 10.41317 | 37972 ft | 464 kts | 287° |
| 2026-05-05 21:03 | 46.75974 | 10.32601 | 37975 ft | 468 kts | 287° |
| 2026-05-05 21:04 | 46.78473 | 10.23883 | 37972 ft | 468 kts | 287° |
| 2026-05-05 21:04 | 46.80972 | 10.15170 | 37953 ft | 467 kts | 287° |
| 2026-05-05 21:05 | 46.83468 | 10.06439 | 37951 ft | 469 kts | 287° |
| 2026-05-05 21:05 | 46.85958 | 9.97695 | 37962 ft | 469 kts | 287° |
| 2026-05-05 21:06 | 46.88454 | 9.88895 | 37972 ft | 471 kts | 287° |
| 2026-05-05 21:06 | 46.90938 | 9.80107 | 37965 ft | 470 kts | 287° |
| 2026-05-05 21:07 | 46.93416 | 9.71310 | 37965 ft | 470 kts | 288° |
| 2026-05-05 21:07 | 46.95896 | 9.62469 | 37951 ft | 472 kts | 288° |
| 2026-05-05 21:08 | 46.98369 | 9.53628 | 37975 ft | 471 kts | 288° |
| 2026-05-05 21:08 | 47.00842 | 9.44743 | 37953 ft | 474 kts | 288° |
| 2026-05-05 21:09 | 47.03323 | 9.35806 | 37964 ft | 475 kts | 288° |
| 2026-05-05 21:09 | 47.05796 | 9.26865 | 37919 ft | 473 kts | 287° |
| 2026-05-05 21:10 | 47.08251 | 9.17950 | 37918 ft | 475 kts | 287° |
| 2026-05-05 21:10 | 47.10714 | 9.08973 | 37921 ft | 476 kts | 287° |
| 2026-05-05 21:11 | 47.13168 | 8.99997 | 37933 ft | 476 kts | 288° |
| 2026-05-05 21:11 | 47.15593 | 8.90968 | 37933 ft | 477 kts | 287° |
| 2026-05-05 21:12 | 47.17938 | 8.81930 | 37928 ft | 474 kts | 287° |
| 2026-05-05 21:12 | 47.20255 | 8.72848 | 37923 ft | 479 kts | 287° |
| 2026-05-05 21:13 | 47.22578 | 8.63688 | 37912 ft | 479 kts | 287° |
| 2026-05-05 21:13 | 47.24883 | 8.54568 | 37901 ft | 476 kts | 287° |
| 2026-05-05 21:14 | 47.27182 | 8.45441 | 37903 ft | 478 kts | 287° |
| 2026-05-05 21:14 | 47.29487 | 8.36272 | 37906 ft | 480 kts | 287° |
| 2026-05-05 21:15 | 47.31780 | 8.27099 | 37903 ft | 477 kts | 286° |
| 2026-05-05 21:15 | 47.34053 | 8.17966 | 37907 ft | 477 kts | 286° |
| 2026-05-05 21:16 | 47.36324 | 8.08788 | 37903 ft | 479 kts | 286° |
| 2026-05-05 21:16 | 47.38593 | 7.99580 | 37899 ft | 480 kts | 286° |
| 2026-05-05 21:17 | 47.40863 | 7.90338 | 37892 ft | 480 kts | 286° |
| 2026-05-05 21:17 | 47.43120 | 7.81104 | 37897 ft | 481 kts | 286° |
| 2026-05-05 21:18 | 47.45369 | 7.71813 | 37907 ft | 480 kts | 285° |
| 2026-05-05 21:18 | 47.47277 | 7.62462 | 37893 ft | 476 kts | 282° |
| 2026-05-05 21:19 | 47.48935 | 7.52991 | 37888 ft | 479 kts | 281° |
| 2026-05-05 21:19 | 47.50526 | 7.43464 | 37883 ft | 479 kts | 281° |
| 2026-05-05 21:20 | 47.52106 | 7.33912 | 37884 ft | 479 kts | 280° |
| 2026-05-05 21:20 | 47.53676 | 7.24376 | 37881 ft | 478 kts | 280° |
| 2026-05-05 21:21 | 47.55239 | 7.14832 | 37877 ft | 480 kts | 280° |
| 2026-05-05 21:21 | 47.56804 | 7.05231 | 37876 ft | 480 kts | 280° |
| 2026-05-05 21:22 | 47.58354 | 6.95680 | 37876 ft | 479 kts | 280° |
| 2026-05-05 21:22 | 47.59900 | 6.86088 | 37868 ft | 482 kts | 281° |
| 2026-05-05 21:23 | 47.61443 | 6.76466 | 37873 ft | 481 kts | 281° |
| 2026-05-05 21:23 | 47.62976 | 6.66842 | 37871 ft | 481 kts | 281° |
| 2026-05-05 21:24 | 47.64505 | 6.57182 | 37862 ft | 484 kts | 281° |
| 2026-05-05 21:24 | 47.66027 | 6.47516 | 37865 ft | 482 kts | 281° |
| 2026-05-05 21:25 | 47.67535 | 6.37885 | 37870 ft | 481 kts | 281° |
| 2026-05-05 21:25 | 47.69208 | 6.28249 | 37871 ft | 484 kts | 283° |
| 2026-05-05 21:26 | 47.71142 | 6.18721 | 37865 ft | 483 kts | 284° |
| 2026-05-05 21:26 | 47.73151 | 6.09217 | 37862 ft | 485 kts | 285° |
| 2026-05-05 21:27 | 47.75173 | 5.99663 | 37863 ft | 487 kts | 285° |
| 2026-05-05 21:27 | 47.77185 | 5.90104 | 37862 ft | 486 kts | 285° |
| 2026-05-05 21:28 | 47.79188 | 5.80532 | 37863 ft | 487 kts | 285° |
| 2026-05-05 21:28 | 47.81178 | 5.70975 | 37863 ft | 485 kts | 285° |
| 2026-05-05 21:29 | 47.83157 | 5.61424 | 37859 ft | 484 kts | 285° |
| 2026-05-05 21:29 | 47.85132 | 5.51844 | 37864 ft | 487 kts | 285° |
| 2026-05-05 21:30 | 47.87100 | 5.42257 | 37863 ft | 485 kts | 285° |
| 2026-05-05 21:30 | 47.89061 | 5.32653 | 37862 ft | 487 kts | 284° |
| 2026-05-05 21:31 | 47.91993 | 5.23561 | 37863 ft | 494 kts | 302° |
| 2026-05-05 21:31 | 47.96284 | 5.15548 | 37849 ft | 496 kts | 309° |
| 2026-05-05 21:32 | 48.00886 | 5.07944 | 37844 ft | 495 kts | 310° |
| 2026-05-05 21:32 | 48.05510 | 5.00370 | 37852 ft | 495 kts | 310° |
| 2026-05-05 21:33 | 48.10121 | 4.92752 | 37839 ft | 495 kts | 310° |
| 2026-05-05 21:33 | 48.14714 | 4.85116 | 37823 ft | 496 kts | 310° |
| 2026-05-05 21:34 | 48.19308 | 4.77450 | 37833 ft | 497 kts | 310° |
| 2026-05-05 21:34 | 48.23903 | 4.69761 | 37841 ft | 496 kts | 310° |
| 2026-05-05 21:35 | 48.28486 | 4.62065 | 37825 ft | 495 kts | 310° |
| 2026-05-05 21:35 | 48.33056 | 4.54375 | 37831 ft | 495 kts | 310° |
| 2026-05-05 21:36 | 48.37622 | 4.46668 | 37823 ft | 495 kts | 310° |
| 2026-05-05 21:36 | 48.42188 | 4.38938 | 37832 ft | 495 kts | 310° |
| 2026-05-05 21:37 | 48.46762 | 4.31172 | 37833 ft | 496 kts | 309° |
| 2026-05-05 21:37 | 48.51319 | 4.23412 | 37837 ft | 496 kts | 309° |
| 2026-05-05 21:38 | 48.55878 | 4.15625 | 37832 ft | 496 kts | 309° |
| 2026-05-05 21:38 | 48.60420 | 4.07843 | 37829 ft | 495 kts | 309° |
| 2026-05-05 21:39 | 48.64952 | 4.00056 | 37826 ft | 494 kts | 309° |
| 2026-05-05 21:39 | 48.69480 | 3.92258 | 37823 ft | 495 kts | 310° |
| 2026-05-05 21:40 | 48.74187 | 3.84657 | 37815 ft | 496 kts | 313° |
| 2026-05-05 21:40 | 48.79064 | 3.77279 | 37819 ft | 497 kts | 314° |
| 2026-05-05 21:41 | 48.83986 | 3.69948 | 37811 ft | 497 kts | 314° |
| 2026-05-05 21:41 | 48.88901 | 3.62614 | 37813 ft | 497 kts | 314° |
| 2026-05-05 21:42 | 48.93810 | 3.55258 | 37818 ft | 497 kts | 314° |
| 2026-05-05 21:42 | 48.98716 | 3.47884 | 37811 ft | 496 kts | 314° |
| 2026-05-05 21:43 | 49.03607 | 3.40509 | 37814 ft | 496 kts | 314° |
| 2026-05-05 21:43 | 49.08512 | 3.33091 | 37821 ft | 498 kts | 314° |
| 2026-05-05 21:44 | 49.13402 | 3.25674 | 37816 ft | 496 kts | 314° |
| 2026-05-05 21:44 | 49.18275 | 3.18262 | 37821 ft | 497 kts | 314° |
| 2026-05-05 21:45 | 49.23185 | 3.10770 | 37830 ft | 498 kts | 314° |
| 2026-05-05 21:45 | 49.28065 | 3.03303 | 37831 ft | 497 kts | 314° |
| 2026-05-05 21:46 | 49.32936 | 2.95827 | 37839 ft | 496 kts | 314° |
| 2026-05-05 21:46 | 49.37829 | 2.88295 | 37836 ft | 498 kts | 314° |
| 2026-05-05 21:47 | 49.42683 | 2.80802 | 37831 ft | 496 kts | 314° |
| 2026-05-05 21:47 | 49.47538 | 2.73283 | 37840 ft | 498 kts | 314° |
| 2026-05-05 21:48 | 49.52401 | 2.65729 | 37843 ft | 498 kts | 314° |
| 2026-05-05 21:48 | 49.57264 | 2.58150 | 37606 ft | 501 kts | 314° |
| 2026-05-05 21:49 | 49.59653 | 2.54273 | 37365 ft | 502 kts | 312° |
| 2026-05-05 21:49 | 49.61991 | 2.50284 | 37110 ft | 500 kts | 311° |
| 2026-05-05 21:49 | 49.64258 | 2.46282 | 36839 ft | 496 kts | 310° |
| 2026-05-05 21:49 | 49.66493 | 2.42259 | 36577 ft | 496 kts | 310° |
| 2026-05-05 21:50 | 49.68733 | 2.38190 | 36303 ft | 499 kts | 310° |
| 2026-05-05 21:50 | 49.70980 | 2.34090 | 36042 ft | 503 kts | 310° |
| 2026-05-05 21:50 | 49.73234 | 2.29969 | 35782 ft | 503 kts | 310° |
| 2026-05-05 21:50 | 49.75479 | 2.25863 | 35513 ft | 502 kts | 310° |
| 2026-05-05 21:51 | 49.77724 | 2.21751 | 35247 ft | 503 kts | 310° |
| 2026-05-05 21:51 | 49.79970 | 2.17633 | 34978 ft | 505 kts | 310° |
| 2026-05-05 21:51 | 49.82232 | 2.13481 | 34663 ft | 506 kts | 310° |
| 2026-05-05 21:51 | 49.84492 | 2.09325 | 34317 ft | 505 kts | 310° |
| 2026-05-05 21:52 | 49.88966 | 2.01081 | 33593 ft | 501 kts | 310° |
| 2026-05-05 21:52 | 49.91207 | 1.96942 | 33213 ft | 504 kts | 310° |
| 2026-05-05 21:52 | 49.93457 | 1.92779 | 32840 ft | 506 kts | 310° |
| 2026-05-05 21:53 | 49.95709 | 1.88606 | 32457 ft | 505 kts | 310° |
| 2026-05-05 21:53 | 49.97944 | 1.84457 | 32075 ft | 502 kts | 310° |
| 2026-05-05 21:53 | 50.00178 | 1.80304 | 31538 ft | 507 kts | 310° |
| 2026-05-05 21:53 | 50.02439 | 1.76094 | 30859 ft | 509 kts | 310° |
| 2026-05-05 21:54 | 50.04702 | 1.71924 | 30134 ft | 503 kts | 312° |
| 2026-05-05 21:54 | 50.07063 | 1.67993 | 29417 ft | 497 kts | 316° |
| 2026-05-05 21:54 | 50.09514 | 1.64296 | 28704 ft | 490 kts | 318° |
| 2026-05-05 21:54 | 50.12005 | 1.60763 | 28001 ft | 484 kts | 319° |
| 2026-05-05 21:55 | 50.14504 | 1.57324 | 27293 ft | 479 kts | 320° |
| 2026-05-05 21:55 | 50.17000 | 1.53931 | 26616 ft | 478 kts | 320° |
| 2026-05-05 21:55 | 50.19505 | 1.50534 | 25943 ft | 481 kts | 320° |
| 2026-05-05 21:55 | 50.22020 | 1.47119 | 25279 ft | 478 kts | 320° |
| 2026-05-05 21:56 | 50.24497 | 1.43745 | 24621 ft | 472 kts | 320° |
| 2026-05-05 21:56 | 50.26945 | 1.40403 | 23974 ft | 466 kts | 320° |
| 2026-05-05 21:56 | 50.29371 | 1.37084 | 23342 ft | 461 kts | 320° |
| 2026-05-05 21:56 | 50.31770 | 1.33795 | 22718 ft | 456 kts | 320° |
| 2026-05-05 21:57 | 50.34146 | 1.30534 | 22093 ft | 452 kts | 320° |
| 2026-05-05 21:57 | 50.36494 | 1.27306 | 21475 ft | 448 kts | 320° |
| 2026-05-05 21:57 | 50.38815 | 1.24110 | 20857 ft | 443 kts | 320° |
| 2026-05-05 21:57 | 50.41107 | 1.20952 | 20241 ft | 439 kts | 320° |
| 2026-05-05 21:58 | 50.43385 | 1.17806 | 19622 ft | 435 kts | 320° |
| 2026-05-05 21:58 | 50.45631 | 1.14701 | 19007 ft | 431 kts | 320° |
| 2026-05-05 21:58 | 50.47863 | 1.11612 | 18385 ft | 427 kts | 320° |
| 2026-05-05 21:58 | 50.50040 | 1.08496 | 17824 ft | 422 kts | 317° |
| 2026-05-05 21:59 | 50.52128 | 1.05289 | 17402 ft | 420 kts | 316° |
| 2026-05-05 21:59 | 50.54160 | 1.02018 | 16980 ft | 419 kts | 315° |
| 2026-05-05 21:59 | 50.56160 | 0.98711 | 16560 ft | 416 kts | 314° |
| 2026-05-05 21:59 | 50.58124 | 0.95418 | 16156 ft | 413 kts | 314° |
| 2026-05-05 22:00 | 50.60060 | 0.92149 | 16069 ft | 409 kts | 314° |
| 2026-05-05 22:00 | 50.62010 | 0.88851 | 15999 ft | 413 kts | 314° |
| 2026-05-05 22:00 | 50.63960 | 0.85549 | 15967 ft | 412 kts | 314° |
| 2026-05-05 22:00 | 50.65890 | 0.82227 | 15961 ft | 413 kts | 313° |
| 2026-05-05 22:01 | 50.67782 | 0.78802 | 15734 ft | 416 kts | 312° |
| 2026-05-05 22:01 | 50.69620 | 0.75336 | 15402 ft | 411 kts | 311° |
| 2026-05-05 22:01 | 50.71398 | 0.71902 | 15057 ft | 401 kts | 310° |
| 2026-05-05 22:01 | 50.73126 | 0.68527 | 14711 ft | 390 kts | 310° |
| 2026-05-05 22:02 | 50.74802 | 0.65238 | 14371 ft | 381 kts | 310° |
| 2026-05-05 22:02 | 50.76438 | 0.62023 | 14027 ft | 372 kts | 310° |
| 2026-05-05 22:02 | 50.78035 | 0.58880 | 13679 ft | 364 kts | 310° |
| 2026-05-05 22:02 | 50.79576 | 0.55843 | 13222 ft | 347 kts | 310° |
| 2026-05-05 22:03 | 50.81050 | 0.52933 | 12654 ft | 334 kts | 310° |
| 2026-05-05 22:03 | 50.82470 | 0.50129 | 12085 ft | 323 kts | 310° |
| 2026-05-05 22:03 | 50.83843 | 0.47419 | 11612 ft | 309 kts | 310° |
| 2026-05-05 22:03 | 50.85154 | 0.44826 | 11217 ft | 296 kts | 310° |
| 2026-05-05 22:04 | 50.86410 | 0.42343 | 10824 ft | 284 kts | 310° |
| 2026-05-05 22:04 | 50.87620 | 0.39947 | 10426 ft | 277 kts | 310° |
| 2026-05-05 22:04 | 50.88816 | 0.37578 | 10028 ft | 275 kts | 310° |
| 2026-05-05 22:04 | 50.90003 | 0.35224 | 9636 ft | 274 kts | 311° |
| 2026-05-05 22:05 | 50.91187 | 0.32874 | 9199 ft | 272 kts | 310° |
| 2026-05-05 22:05 | 50.92355 | 0.30551 | 8759 ft | 269 kts | 310° |
| 2026-05-05 22:05 | 50.93524 | 0.28225 | 8339 ft | 272 kts | 310° |
| 2026-05-05 22:05 | 50.94702 | 0.25864 | 7894 ft | 274 kts | 310° |
| 2026-05-05 22:06 | 50.95867 | 0.23471 | 7443 ft | 276 kts | 304° |
| 2026-05-05 22:06 | 50.96468 | 0.20602 | 7064 ft | 279 kts | 274° |
| 2026-05-05 22:06 | 50.96195 | 0.17577 | 6766 ft | 278 kts | 258° |
| 2026-05-05 22:06 | 50.95693 | 0.14643 | 6461 ft | 275 kts | 256° |
| 2026-05-05 22:07 | 50.95173 | 0.11754 | 6152 ft | 272 kts | 256° |
| 2026-05-05 22:07 | 50.94654 | 0.08904 | 6015 ft | 267 kts | 256° |
| 2026-05-05 22:07 | 50.94142 | 0.06079 | 5982 ft | 268 kts | 256° |
| 2026-05-05 22:07 | 50.93791 | 0.03210 | 5967 ft | 262 kts | 275° |
| 2026-05-05 22:08 | 50.93959 | 0.00420 | 5972 ft | 251 kts | 281° |
| 2026-05-05 22:08 | 50.94210 | -0.02409 | 5980 ft | 264 kts | 281° |
| 2026-05-05 22:08 | 50.94473 | -0.05273 | 5982 ft | 263 kts | 281° |
| 2026-05-05 22:08 | 50.94738 | -0.08149 | 5903 ft | 266 kts | 281° |
| 2026-05-05 22:09 | 50.95006 | -0.11068 | 5561 ft | 267 kts | 281° |
| 2026-05-05 22:09 | 50.95269 | -0.13992 | 5119 ft | 270 kts | 281° |
| 2026-05-05 22:09 | 50.95533 | -0.16937 | 4721 ft | 272 kts | 281° |
| 2026-05-05 22:09 | 50.95798 | -0.19901 | 4336 ft | 272 kts | 281° |
| 2026-05-05 22:10 | 50.96064 | -0.22866 | 3959 ft | 273 kts | 281° |
| 2026-05-05 22:10 | 50.96329 | -0.25836 | 3578 ft | 273 kts | 281° |
| 2026-05-05 22:10 | 50.96591 | -0.28809 | 3212 ft | 273 kts | 281° |
| 2026-05-05 22:10 | 50.96846 | -0.31748 | 3013 ft | 263 kts | 281° |
| 2026-05-05 22:11 | 50.97140 | -0.34475 | 2964 ft | 240 kts | 296° |
| 2026-05-05 22:11 | 50.98108 | -0.36532 | 2987 ft | 229 kts | 329° |
| 2026-05-05 22:11 | 50.99422 | -0.37784 | 2982 ft | 216 kts | 336° |
| 2026-05-05 22:11 | 51.00718 | -0.38900 | 2970 ft | 206 kts | 336° |
| 2026-05-05 22:12 | 51.01915 | -0.39937 | 2981 ft | 188 kts | 336° |
| 2026-05-05 22:12 | 51.03057 | -0.40884 | 2999 ft | 185 kts | 333° |
| 2026-05-05 22:12 | 51.04133 | -0.42008 | 2993 ft | 184 kts | 331° |
| 2026-05-05 22:12 | 51.05192 | -0.43141 | 2981 ft | 183 kts | 331° |
| 2026-05-05 22:13 | 51.06257 | -0.44275 | 2995 ft | 185 kts | 331° |
| 2026-05-05 22:13 | 51.07361 | -0.45250 | 2974 ft | 178 kts | 355° |
| 2026-05-05 22:13 | 51.08523 | -0.44887 | 2991 ft | 174 kts | 36° |
| 2026-05-05 22:13 | 51.09459 | -0.43694 | 2999 ft | 172 kts | 41° |
| 2026-05-05 22:14 | 51.10363 | -0.42452 | 2896 ft | 177 kts | 41° |
| 2026-05-05 22:14 | 51.11230 | -0.41189 | 2562 ft | 179 kts | 48° |
| 2026-05-05 22:14 | 51.11839 | -0.39502 | 2208 ft | 175 kts | 68° |
| 2026-05-05 22:14 | 51.12175 | -0.37728 | 2053 ft | 159 kts | 73° |
| 2026-05-05 22:15 | 51.12419 | -0.36132 | 2020 ft | 136 kts | 73° |
| 2026-05-05 22:15 | 51.12632 | -0.34697 | 1928 ft | 134 kts | 73° |
| 2026-05-05 22:15 | 51.12833 | -0.33294 | 1743 ft | 127 kts | 73° |
| 2026-05-05 22:15 | 51.13029 | -0.31916 | 1620 ft | 129 kts | 74° |
| 2026-05-05 22:16 | 51.13221 | -0.30515 | 1473 ft | 130 kts | 75° |
| 2026-05-05 22:16 | 51.13415 | -0.29110 | 1277 ft | 130 kts | 75° |
| 2026-05-05 22:16 | 51.13610 | -0.27705 | 1117 ft | 130 kts | 75° |
| 2026-05-05 22:16 | 51.13807 | -0.26294 | 947 ft | 131 kts | 76° |
| 2026-05-05 22:17 | 51.14008 | -0.24865 | 770 ft | 133 kts | 75° |
| 2026-05-05 22:17 | 51.14211 | -0.23430 | 595 ft | 133 kts | 76° |
| 2026-05-05 22:17 | 51.14411 | -0.21987 | 396 ft | 135 kts | 77° |
| 2026-05-05 22:17 | 51.14609 | -0.20518 | 215 ft | 136 kts | 77° |
| 2026-05-05 22:18 | 51.14802 | -0.19126 | 198 ft | 114 kts | 77° |
| 2026-05-05 22:18 | 51.14924 | -0.18231 | 198 ft | 53 kts | 78° |
| 2026-05-05 22:18 | 51.14972 | -0.17884 | 198 ft | 26 kts | 78° |
| 2026-05-05 22:18 | 51.14997 | -0.17767 | 198 ft | 7 kts | 43° |
| 2026-05-05 22:19 | 51.15071 | -0.17752 | 198 ft | 10 kts | 354° |
| 2026-05-05 22:19 | 51.15081 | -0.17754 | 198 ft | 0 kts | 352° |
| 2026-05-05 22:19 | 51.15128 | -0.17762 | 197 ft | 14 kts | 354° |
| 2026-05-05 22:19 | 51.15227 | -0.17802 | 196 ft | 13 kts | 305° |
| 2026-05-05 22:20 | 51.15228 | -0.17931 | 196 ft | 11 kts | 259° |
| 2026-05-05 22:20 | 51.15217 | -0.18047 | 197 ft | 9 kts | 281° |
| 2026-05-05 22:20 | 51.15293 | -0.18113 | 195 ft | 18 kts | 348° |
| 2026-05-05 22:20 | 51.15403 | -0.18152 | 194 ft | 14 kts | 347° |
| 2026-05-05 22:21 | 51.15503 | -0.18192 | 194 ft | 16 kts | 346° |
| 2026-05-05 22:21 | 51.15614 | -0.18231 | 192 ft | 11 kts | 351° |
| 2026-05-05 22:21 | 51.15666 | -0.18171 | 191 ft | 11 kts | 73° |
| 2026-05-05 22:21 | 51.15711 | -0.18037 | 194 ft | 13 kts | 14° |
| 2026-05-05 22:22 | 51.15801 | -0.18066 | 193 ft | 13 kts | 347° |
| 2026-05-05 22:22 | 51.15891 | -0.18097 | 192 ft | 13 kts | 348° |
| 2026-05-05 22:22 | 51.15980 | -0.18127 | 192 ft | 12 kts | 348° |
| 2026-05-05 22:22 | 51.16029 | -0.18121 | 192 ft | 5 kts | 57° |
| 2026-05-05 22:23 | 51.16046 | -0.18064 | 193 ft | 8 kts | 73° |
| 2026-05-05 22:23 | 51.16051 | -0.18023 | 194 ft | 0 kts | 78° |